sensor_id;sensor_type;location;lat;lon;timestamp;P1;durP1;ratioP1;P2;durP2;ratioP2
20067;SDS011;10194;50.824;7.134;2022-09-02T00:00:47;2.90;;;2.05;;
20067;SDS011;10194;50.824;7.134;2022-09-02T00:03:17;2.95;;;2.30;;
20067;SDS011;10194;50.824;7.134;2022-09-02T00:05:44;5.32;;;2.17;;
20067;SDS011;10194;50.824;7.134;2022-09-02T00:08:11;5.57;;;2.65;;
20067;SDS011;10194;50.824;7.134;2022-09-02T00:10:40;4.68;;;2.20;;
20067;SDS011;10194;50.824;7.134;2022-09-02T00:13:09;6.50;;;2.50;;
20067;SDS011;10194;50.824;7.134;2022-09-02T00:15:39;3.75;;;2.17;;
20067;SDS011;10194;50.824;7.134;2022-09-02T00:18:06;3.50;;;2.22;;
20067;SDS011;10194;50.824;7.134;2022-09-02T00:20:38;2.90;;;2.20;;
20067;SDS011;10194;50.824;7.134;2022-09-02T00:23:08;4.32;;;2.60;;
20067;SDS011;10194;50.824;7.134;2022-09-02T00:25:35;2.88;;;2.10;;
20067;SDS011;10194;50.824;7.134;2022-09-02T00:28:03;4.07;;;2.10;;
20067;SDS011;10194;50.824;7.134;2022-09-02T00:30:31;6.80;;;2.58;;
20067;SDS011;10194;50.824;7.134;2022-09-02T00:32:58;4.50;;;2.20;;
20067;SDS011;10194;50.824;7.134;2022-09-02T00:35:24;5.53;;;2.33;;
20067;SDS011;10194;50.824;7.134;2022-09-02T00:37:50;3.75;;;2.30;;
20067;SDS011;10194;50.824;7.134;2022-09-02T00:40:16;4.30;;;2.60;;
20067;SDS011;10194;50.824;7.134;2022-09-02T00:42:42;4.80;;;2.40;;
20067;SDS011;10194;50.824;7.134;2022-09-02T00:45:09;8.40;;;3.00;;
20067;SDS011;10194;50.824;7.134;2022-09-02T00:47:40;4.03;;;2.50;;
20067;SDS011;10194;50.824;7.134;2022-09-02T00:50:07;10.48;;;2.80;;
20067;SDS011;10194;50.824;7.134;2022-09-02T00:52:37;4.47;;;2.33;;
20067;SDS011;10194;50.824;7.134;2022-09-02T00:55:10;5.72;;;2.40;;
20067;SDS011;10194;50.824;7.134;2022-09-02T00:57:44;5.75;;;2.30;;
20067;SDS011;10194;50.824;7.134;2022-09-02T01:00:15;4.72;;;2.10;;
20067;SDS011;10194;50.824;7.134;2022-09-02T01:02:48;3.92;;;2.53;;
20067;SDS011;10194;50.824;7.134;2022-09-02T01:05:18;3.30;;;2.25;;
20067;SDS011;10194;50.824;7.134;2022-09-02T01:07:47;4.53;;;2.25;;
20067;SDS011;10194;50.824;7.134;2022-09-02T01:10:20;5.25;;;2.55;;
20067;SDS011;10194;50.824;7.134;2022-09-02T01:13:01;5.10;;;2.50;;
20067;SDS011;10194;50.824;7.134;2022-09-02T01:15:35;3.55;;;2.22;;
20067;SDS011;10194;50.824;7.134;2022-09-02T01:18:08;7.13;;;3.00;;
20067;SDS011;10194;50.824;7.134;2022-09-02T01:20:38;4.82;;;2.60;;
20067;SDS011;10194;50.824;7.134;2022-09-02T01:23:04;4.65;;;2.63;;
20067;SDS011;10194;50.824;7.134;2022-09-02T01:25:31;7.57;;;2.70;;
20067;SDS011;10194;50.824;7.134;2022-09-02T01:28:03;5.07;;;2.47;;
20067;SDS011;10194;50.824;7.134;2022-09-02T01:30:35;4.18;;;2.83;;
20067;SDS011;10194;50.824;7.134;2022-09-02T01:33:03;5.10;;;2.72;;
20067;SDS011;10194;50.824;7.134;2022-09-02T01:35:29;6.05;;;2.70;;
20067;SDS011;10194;50.824;7.134;2022-09-02T01:37:56;3.80;;;2.60;;
20067;SDS011;10194;50.824;7.134;2022-09-02T01:40:23;4.72;;;2.58;;
20067;SDS011;10194;50.824;7.134;2022-09-02T01:42:52;5.90;;;2.53;;
20067;SDS011;10194;50.824;7.134;2022-09-02T01:45:21;4.38;;;2.78;;
20067;SDS011;10194;50.824;7.134;2022-09-02T01:47:47;7.10;;;2.83;;
20067;SDS011;10194;50.824;7.134;2022-09-02T01:50:13;5.97;;;3.17;;
20067;SDS011;10194;50.824;7.134;2022-09-02T01:52:39;5.00;;;2.60;;
20067;SDS011;10194;50.824;7.134;2022-09-02T01:55:05;6.38;;;2.65;;
20067;SDS011;10194;50.824;7.134;2022-09-02T01:57:31;6.68;;;2.58;;
20067;SDS011;10194;50.824;7.134;2022-09-02T01:59:57;5.50;;;2.88;;
20067;SDS011;10194;50.824;7.134;2022-09-02T02:02:25;4.38;;;2.72;;
20067;SDS011;10194;50.824;7.134;2022-09-02T02:04:51;3.85;;;3.03;;
20067;SDS011;10194;50.824;7.134;2022-09-02T02:07:19;4.03;;;2.45;;
20067;SDS011;10194;50.824;7.134;2022-09-02T02:09:46;4.78;;;3.00;;
20067;SDS011;10194;50.824;7.134;2022-09-02T02:12:13;4.50;;;2.80;;
20067;SDS011;10194;50.824;7.134;2022-09-02T02:14:40;6.13;;;3.03;;
20067;SDS011;10194;50.824;7.134;2022-09-02T02:17:06;6.38;;;3.20;;
20067;SDS011;10194;50.824;7.134;2022-09-02T02:19:32;4.95;;;2.88;;
20067;SDS011;10194;50.824;7.134;2022-09-02T02:21:59;4.93;;;2.95;;
20067;SDS011;10194;50.824;7.134;2022-09-02T02:24:25;6.03;;;3.00;;
20067;SDS011;10194;50.824;7.134;2022-09-02T02:26:52;3.53;;;2.67;;
20067;SDS011;10194;50.824;7.134;2022-09-02T02:29:18;3.65;;;2.50;;
20067;SDS011;10194;50.824;7.134;2022-09-02T02:31:44;7.07;;;2.90;;
20067;SDS011;10194;50.824;7.134;2022-09-02T02:34:10;4.13;;;2.88;;
20067;SDS011;10194;50.824;7.134;2022-09-02T02:36:37;4.57;;;2.70;;
20067;SDS011;10194;50.824;7.134;2022-09-02T02:39:05;5.00;;;2.70;;
20067;SDS011;10194;50.824;7.134;2022-09-02T02:41:33;3.28;;;2.10;;
20067;SDS011;10194;50.824;7.134;2022-09-02T02:44:01;5.80;;;2.63;;
20067;SDS011;10194;50.824;7.134;2022-09-02T02:46:27;3.72;;;2.47;;
20067;SDS011;10194;50.824;7.134;2022-09-02T02:48:55;4.72;;;2.40;;
20067;SDS011;10194;50.824;7.134;2022-09-02T02:51:23;3.67;;;2.40;;
20067;SDS011;10194;50.824;7.134;2022-09-02T02:53:50;3.28;;;2.35;;
20067;SDS011;10194;50.824;7.134;2022-09-02T02:56:15;9.02;;;2.65;;
20067;SDS011;10194;50.824;7.134;2022-09-02T02:58:41;4.03;;;2.88;;
20067;SDS011;10194;50.824;7.134;2022-09-02T03:01:07;4.93;;;2.33;;
20067;SDS011;10194;50.824;7.134;2022-09-02T03:03:33;4.85;;;2.72;;
20067;SDS011;10194;50.824;7.134;2022-09-02T03:06:00;4.60;;;2.70;;
20067;SDS011;10194;50.824;7.134;2022-09-02T03:08:26;3.58;;;2.50;;
20067;SDS011;10194;50.824;7.134;2022-09-02T03:10:53;4.35;;;2.75;;
20067;SDS011;10194;50.824;7.134;2022-09-02T03:13:20;6.15;;;2.70;;
20067;SDS011;10194;50.824;7.134;2022-09-02T03:15:48;5.97;;;3.13;;
20067;SDS011;10194;50.824;7.134;2022-09-02T03:18:14;4.30;;;2.60;;
20067;SDS011;10194;50.824;7.134;2022-09-02T03:20:40;3.95;;;2.55;;
20067;SDS011;10194;50.824;7.134;2022-09-02T03:23:07;3.55;;;2.45;;
20067;SDS011;10194;50.824;7.134;2022-09-02T03:25:34;4.63;;;3.05;;
20067;SDS011;10194;50.824;7.134;2022-09-02T03:28:00;8.48;;;3.50;;
20067;SDS011;10194;50.824;7.134;2022-09-02T03:30:28;5.45;;;3.30;;
20067;SDS011;10194;50.824;7.134;2022-09-02T03:32:56;5.05;;;3.30;;
20067;SDS011;10194;50.824;7.134;2022-09-02T03:35:24;7.70;;;3.40;;
20067;SDS011;10194;50.824;7.134;2022-09-02T03:37:52;5.10;;;3.33;;
20067;SDS011;10194;50.824;7.134;2022-09-02T03:40:19;10.18;;;4.68;;
20067;SDS011;10194;50.824;7.134;2022-09-02T03:42:48;10.65;;;7.07;;
20067;SDS011;10194;50.824;7.134;2022-09-02T03:45:15;15.25;;;7.57;;
20067;SDS011;10194;50.824;7.134;2022-09-02T03:47:42;12.10;;;7.93;;
20067;SDS011;10194;50.824;7.134;2022-09-02T03:50:36;4.82;;;3.90;;
20067;SDS011;10194;50.824;7.134;2022-09-02T03:53:04;5.85;;;3.05;;
20067;SDS011;10194;50.824;7.134;2022-09-02T03:55:32;4.85;;;3.20;;
20067;SDS011;10194;50.824;7.134;2022-09-02T03:58:00;3.35;;;3.00;;
20067;SDS011;10194;50.824;7.134;2022-09-02T04:00:26;2.83;;;2.47;;
20067;SDS011;10194;50.824;7.134;2022-09-02T04:02:57;2.60;;;1.95;;
20067;SDS011;10194;50.824;7.134;2022-09-02T04:05:25;5.13;;;2.40;;
20067;SDS011;10194;50.824;7.134;2022-09-02T04:07:51;3.13;;;2.35;;
20067;SDS011;10194;50.824;7.134;2022-09-02T04:10:18;3.17;;;2.88;;
20067;SDS011;10194;50.824;7.134;2022-09-02T04:12:45;5.30;;;2.97;;
20067;SDS011;10194;50.824;7.134;2022-09-02T04:15:12;4.78;;;2.67;;
20067;SDS011;10194;50.824;7.134;2022-09-02T04:17:39;4.38;;;2.80;;
20067;SDS011;10194;50.824;7.134;2022-09-02T04:20:06;4.78;;;3.58;;
20067;SDS011;10194;50.824;7.134;2022-09-02T04:22:35;3.75;;;2.50;;
20067;SDS011;10194;50.824;7.134;2022-09-02T04:25:01;4.20;;;2.78;;
20067;SDS011;10194;50.824;7.134;2022-09-02T04:27:29;4.35;;;2.85;;
20067;SDS011;10194;50.824;7.134;2022-09-02T04:29:55;5.07;;;3.45;;
20067;SDS011;10194;50.824;7.134;2022-09-02T04:32:20;3.90;;;2.75;;
20067;SDS011;10194;50.824;7.134;2022-09-02T04:34:47;4.82;;;2.55;;
20067;SDS011;10194;50.824;7.134;2022-09-02T04:37:13;4.28;;;2.33;;
20067;SDS011;10194;50.824;7.134;2022-09-02T04:39:39;3.05;;;2.10;;
20067;SDS011;10194;50.824;7.134;2022-09-02T04:42:05;5.07;;;2.20;;
20067;SDS011;10194;50.824;7.134;2022-09-02T04:44:31;4.35;;;2.22;;
20067;SDS011;10194;50.824;7.134;2022-09-02T04:46:58;2.92;;;2.30;;
20067;SDS011;10194;50.824;7.134;2022-09-02T04:49:24;1.85;;;1.70;;
20067;SDS011;10194;50.824;7.134;2022-09-02T04:51:50;4.63;;;2.10;;
20067;SDS011;10194;50.824;7.134;2022-09-02T04:54:17;3.95;;;2.20;;
20067;SDS011;10194;50.824;7.134;2022-09-02T04:56:44;2.40;;;2.00;;
20067;SDS011;10194;50.824;7.134;2022-09-02T04:59:09;2.95;;;1.95;;
20067;SDS011;10194;50.824;7.134;2022-09-02T05:01:35;4.00;;;2.15;;
20067;SDS011;10194;50.824;7.134;2022-09-02T05:04:03;4.93;;;2.00;;
20067;SDS011;10194;50.824;7.134;2022-09-02T05:06:34;2.60;;;1.95;;
20067;SDS011;10194;50.824;7.134;2022-09-02T05:09:02;4.40;;;1.70;;
20067;SDS011;10194;50.824;7.134;2022-09-02T05:11:28;3.05;;;2.28;;
20067;SDS011;10194;50.824;7.134;2022-09-02T05:13:58;6.30;;;2.03;;
20067;SDS011;10194;50.824;7.134;2022-09-02T05:16:28;3.08;;;2.17;;
20067;SDS011;10194;50.824;7.134;2022-09-02T05:19:00;3.15;;;2.10;;
20067;SDS011;10194;50.824;7.134;2022-09-02T05:21:28;2.22;;;1.63;;
20067;SDS011;10194;50.824;7.134;2022-09-02T05:23:55;4.70;;;1.73;;
20067;SDS011;10194;50.824;7.134;2022-09-02T05:26:22;4.43;;;2.08;;
20067;SDS011;10194;50.824;7.134;2022-09-02T05:28:49;2.35;;;2.00;;
20067;SDS011;10194;50.824;7.134;2022-09-02T05:31:16;3.53;;;2.15;;
20067;SDS011;10194;50.824;7.134;2022-09-02T05:33:44;3.45;;;1.73;;
20067;SDS011;10194;50.824;7.134;2022-09-02T05:36:12;4.07;;;1.92;;
20067;SDS011;10194;50.824;7.134;2022-09-02T05:38:43;5.43;;;1.85;;
20067;SDS011;10194;50.824;7.134;2022-09-02T05:41:11;3.65;;;2.38;;
20067;SDS011;10194;50.824;7.134;2022-09-02T05:43:49;3.38;;;1.80;;
20067;SDS011;10194;50.824;7.134;2022-09-02T05:46:18;4.18;;;2.00;;
20067;SDS011;10194;50.824;7.134;2022-09-02T05:48:47;3.30;;;2.05;;
20067;SDS011;10194;50.824;7.134;2022-09-02T05:51:36;3.25;;;1.80;;
20067;SDS011;10194;50.824;7.134;2022-09-02T05:54:06;5.03;;;2.00;;
20067;SDS011;10194;50.824;7.134;2022-09-02T05:56:40;3.28;;;1.80;;
20067;SDS011;10194;50.824;7.134;2022-09-02T05:59:07;3.03;;;2.10;;
20067;SDS011;10194;50.824;7.134;2022-09-02T06:01:34;2.78;;;1.80;;
20067;SDS011;10194;50.824;7.134;2022-09-02T06:04:01;2.08;;;1.83;;
20067;SDS011;10194;50.824;7.134;2022-09-02T06:06:29;1.85;;;1.52;;
20067;SDS011;10194;50.824;7.134;2022-09-02T06:08:56;2.05;;;1.73;;
20067;SDS011;10194;50.824;7.134;2022-09-02T06:11:23;3.75;;;1.77;;
20067;SDS011;10194;50.824;7.134;2022-09-02T06:13:49;2.10;;;1.70;;
20067;SDS011;10194;50.824;7.134;2022-09-02T06:16:18;1.83;;;1.58;;
20067;SDS011;10194;50.824;7.134;2022-09-02T06:18:46;2.75;;;1.90;;
20067;SDS011;10194;50.824;7.134;2022-09-02T06:21:13;2.38;;;1.73;;
20067;SDS011;10194;50.824;7.134;2022-09-02T06:23:40;2.53;;;1.85;;
20067;SDS011;10194;50.824;7.134;2022-09-02T06:26:08;5.00;;;1.80;;
20067;SDS011;10194;50.824;7.134;2022-09-02T06:28:40;2.40;;;2.10;;
20067;SDS011;10194;50.824;7.134;2022-09-02T06:31:07;3.97;;;1.85;;
20067;SDS011;10194;50.824;7.134;2022-09-02T06:33:37;2.65;;;1.90;;
20067;SDS011;10194;50.824;7.134;2022-09-02T06:36:07;1.98;;;1.75;;
20067;SDS011;10194;50.824;7.134;2022-09-02T06:38:38;2.92;;;1.70;;
20067;SDS011;10194;50.824;7.134;2022-09-02T06:41:09;3.10;;;2.00;;
20067;SDS011;10194;50.824;7.134;2022-09-02T06:43:39;4.75;;;1.65;;
20067;SDS011;10194;50.824;7.134;2022-09-02T06:46:05;5.80;;;2.65;;
20067;SDS011;10194;50.824;7.134;2022-09-02T06:48:31;1.95;;;1.50;;
20067;SDS011;10194;50.824;7.134;2022-09-02T06:50:57;3.08;;;1.90;;
20067;SDS011;10194;50.824;7.134;2022-09-02T06:53:25;2.35;;;1.60;;
20067;SDS011;10194;50.824;7.134;2022-09-02T06:55:51;5.13;;;1.70;;
20067;SDS011;10194;50.824;7.134;2022-09-02T06:58:17;4.65;;;1.88;;
20067;SDS011;10194;50.824;7.134;2022-09-02T07:00:44;1.92;;;1.70;;
20067;SDS011;10194;50.824;7.134;2022-09-02T07:03:11;2.55;;;1.90;;
20067;SDS011;10194;50.824;7.134;2022-09-02T07:08:38;2.35;;;1.90;;
20067;SDS011;10194;50.824;7.134;2022-09-02T07:11:10;2.13;;;1.75;;
20067;SDS011;10194;50.824;7.134;2022-09-02T07:13:47;2.67;;;1.80;;
20067;SDS011;10194;50.824;7.134;2022-09-02T07:16:14;2.22;;;1.92;;
20067;SDS011;10194;50.824;7.134;2022-09-02T07:18:40;2.83;;;2.00;;
20067;SDS011;10194;50.824;7.134;2022-09-02T07:21:09;2.90;;;2.15;;
20067;SDS011;10194;50.824;7.134;2022-09-02T07:23:38;2.75;;;2.10;;
20067;SDS011;10194;50.824;7.134;2022-09-02T07:26:09;3.65;;;2.45;;
20067;SDS011;10194;50.824;7.134;2022-09-02T07:28:37;3.58;;;2.63;;
20067;SDS011;10194;50.824;7.134;2022-09-02T07:31:06;2.47;;;1.90;;
20067;SDS011;10194;50.824;7.134;2022-09-02T07:33:36;3.22;;;2.20;;
20067;SDS011;10194;50.824;7.134;2022-09-02T07:36:06;3.25;;;2.00;;
20067;SDS011;10194;50.824;7.134;2022-09-02T07:38:34;4.35;;;2.13;;
20067;SDS011;10194;50.824;7.134;2022-09-02T07:41:01;2.53;;;1.80;;
20067;SDS011;10194;50.824;7.134;2022-09-02T07:43:32;5.85;;;2.42;;
20067;SDS011;10194;50.824;7.134;2022-09-02T07:46:02;2.15;;;1.88;;
20067;SDS011;10194;50.824;7.134;2022-09-02T07:48:29;2.10;;;1.90;;
20067;SDS011;10194;50.824;7.134;2022-09-02T07:50:56;2.03;;;1.80;;
20067;SDS011;10194;50.824;7.134;2022-09-02T07:53:23;2.15;;;1.85;;
20067;SDS011;10194;50.824;7.134;2022-09-02T07:55:49;1.98;;;1.80;;
20067;SDS011;10194;50.824;7.134;2022-09-02T07:58:16;6.75;;;2.10;;
20067;SDS011;10194;50.824;7.134;2022-09-02T08:00:46;2.50;;;2.05;;
20067;SDS011;10194;50.824;7.134;2022-09-02T08:03:13;2.35;;;1.83;;
20067;SDS011;10194;50.824;7.134;2022-09-02T08:05:40;2.30;;;1.65;;
20067;SDS011;10194;50.824;7.134;2022-09-02T08:08:09;2.63;;;1.98;;
20067;SDS011;10194;50.824;7.134;2022-09-02T08:10:35;2.83;;;1.98;;
20067;SDS011;10194;50.824;7.134;2022-09-02T08:13:02;2.70;;;2.08;;
20067;SDS011;10194;50.824;7.134;2022-09-02T08:15:30;3.63;;;1.90;;
20067;SDS011;10194;50.824;7.134;2022-09-02T08:17:57;3.50;;;1.90;;
20067;SDS011;10194;50.824;7.134;2022-09-02T08:20:23;2.30;;;2.05;;
20067;SDS011;10194;50.824;7.134;2022-09-02T08:22:50;2.63;;;2.00;;
20067;SDS011;10194;50.824;7.134;2022-09-02T08:25:15;3.92;;;2.45;;
20067;SDS011;10194;50.824;7.134;2022-09-02T08:27:42;3.75;;;2.13;;
20067;SDS011;10194;50.824;7.134;2022-09-02T08:30:09;5.50;;;2.00;;
20067;SDS011;10194;50.824;7.134;2022-09-02T08:32:36;2.45;;;2.00;;
20067;SDS011;10194;50.824;7.134;2022-09-02T08:35:03;2.45;;;2.03;;
20067;SDS011;10194;50.824;7.134;2022-09-02T08:37:32;2.95;;;2.08;;
20067;SDS011;10194;50.824;7.134;2022-09-02T08:40:00;3.65;;;2.00;;
20067;SDS011;10194;50.824;7.134;2022-09-02T08:45:29;3.17;;;2.00;;
20067;SDS011;10194;50.824;7.134;2022-09-02T08:48:06;2.28;;;2.05;;
20067;SDS011;10194;50.824;7.134;2022-09-02T08:50:41;8.48;;;2.47;;
20067;SDS011;10194;50.824;7.134;2022-09-02T08:56:03;4.53;;;2.20;;
20067;SDS011;10194;50.824;7.134;2022-09-02T08:58:40;5.05;;;2.20;;
20067;SDS011;10194;50.824;7.134;2022-09-02T09:18:25;3.03;;;1.90;;
20067;SDS011;10194;50.824;7.134;2022-09-02T09:21:18;2.35;;;1.98;;
20067;SDS011;10194;50.824;7.134;2022-09-02T09:23:44;2.00;;;1.80;;
20067;SDS011;10194;50.824;7.134;2022-09-02T09:26:17;2.42;;;1.75;;
20067;SDS011;10194;50.824;7.134;2022-09-02T09:28:53;1.70;;;1.52;;
20067;SDS011;10194;50.824;7.134;2022-09-02T09:31:21;5.70;;;1.90;;
20067;SDS011;10194;50.824;7.134;2022-09-02T09:44:39;2.03;;;1.60;;
20067;SDS011;10194;50.824;7.134;2022-09-02T09:49:49;2.67;;;1.77;;
20067;SDS011;10194;50.824;7.134;2022-09-02T09:52:24;3.33;;;1.90;;
20067;SDS011;10194;50.824;7.134;2022-09-02T09:55:12;2.13;;;1.70;;
20067;SDS011;10194;50.824;7.134;2022-09-02T09:57:44;3.80;;;1.50;;
20067;SDS011;10194;50.824;7.134;2022-09-02T10:00:31;3.85;;;1.77;;
20067;SDS011;10194;50.824;7.134;2022-09-02T10:02:59;3.30;;;1.48;;
20067;SDS011;10194;50.824;7.134;2022-09-02T10:05:31;2.00;;;1.70;;
20067;SDS011;10194;50.824;7.134;2022-09-02T10:10:54;3.47;;;1.58;;
20067;SDS011;10194;50.824;7.134;2022-09-02T10:13:29;1.80;;;1.60;;
20067;SDS011;10194;50.824;7.134;2022-09-02T10:18:49;1.98;;;1.77;;
20067;SDS011;10194;50.824;7.134;2022-09-02T10:27:45;1.95;;;1.70;;
20067;SDS011;10194;50.824;7.134;2022-09-02T10:30:33;2.25;;;1.65;;
20067;SDS011;10194;50.824;7.134;2022-09-02T10:36:26;1.55;;;1.45;;
20067;SDS011;10194;50.824;7.134;2022-09-02T10:42:02;2.13;;;1.45;;
20067;SDS011;10194;50.824;7.134;2022-09-02T10:53:51;2.92;;;1.60;;
20067;SDS011;10194;50.824;7.134;2022-09-02T10:56:44;2.28;;;1.63;;
20067;SDS011;10194;50.824;7.134;2022-09-02T10:59:23;3.05;;;1.55;;
20067;SDS011;10194;50.824;7.134;2022-09-02T11:01:59;3.15;;;1.50;;
20067;SDS011;10194;50.824;7.134;2022-09-02T11:04:44;2.92;;;1.63;;
20067;SDS011;10194;50.824;7.134;2022-09-02T11:07:18;1.70;;;1.60;;
20067;SDS011;10194;50.824;7.134;2022-09-02T11:09:59;1.63;;;1.50;;
20067;SDS011;10194;50.824;7.134;2022-09-02T11:12:40;3.80;;;1.85;;
20067;SDS011;10194;50.824;7.134;2022-09-02T11:18:37;2.50;;;1.80;;
20067;SDS011;10194;50.824;7.134;2022-09-02T11:24:21;1.83;;;1.73;;
20067;SDS011;10194;50.824;7.134;2022-09-02T11:27:20;3.60;;;1.77;;
20067;SDS011;10194;50.824;7.134;2022-09-02T11:30:22;2.42;;;1.85;;
20067;SDS011;10194;50.824;7.134;2022-09-02T11:33:22;2.33;;;1.60;;
20067;SDS011;10194;50.824;7.134;2022-09-02T11:36:01;1.80;;;1.70;;
20067;SDS011;10194;50.824;7.134;2022-09-02T11:38:30;2.33;;;1.60;;
20067;SDS011;10194;50.824;7.134;2022-09-02T11:50:07;1.75;;;1.63;;
20067;SDS011;10194;50.824;7.134;2022-09-02T11:52:58;1.80;;;1.70;;
20067;SDS011;10194;50.824;7.134;2022-09-02T11:55:55;7.05;;;2.00;;
20067;SDS011;10194;50.824;7.134;2022-09-02T11:59:01;2.30;;;1.85;;
20067;SDS011;10194;50.824;7.134;2022-09-02T12:01:40;3.30;;;1.70;;
20067;SDS011;10194;50.824;7.134;2022-09-02T12:09:46;2.78;;;1.85;;
20067;SDS011;10194;50.824;7.134;2022-09-02T12:20:11;4.10;;;2.42;;
20067;SDS011;10194;50.824;7.134;2022-09-02T12:23:06;2.53;;;2.28;;
20067;SDS011;10194;50.824;7.134;2022-09-02T12:42:33;1.90;;;1.80;;
20067;SDS011;10194;50.824;7.134;2022-09-02T12:45:04;2.33;;;2.00;;
20067;SDS011;10194;50.824;7.134;2022-09-02T12:48:00;2.20;;;2.00;;
20067;SDS011;10194;50.824;7.134;2022-09-02T12:50:57;4.28;;;2.33;;
20067;SDS011;10194;50.824;7.134;2022-09-02T12:56:01;5.35;;;2.00;;
20067;SDS011;10194;50.824;7.134;2022-09-02T12:58:45;2.80;;;2.05;;
20067;SDS011;10194;50.824;7.134;2022-09-02T13:01:16;2.08;;;1.90;;
20067;SDS011;10194;50.824;7.134;2022-09-02T13:09:45;3.13;;;1.80;;
20067;SDS011;10194;50.824;7.134;2022-09-02T13:15:50;3.28;;;1.92;;
20067;SDS011;10194;50.824;7.134;2022-09-02T13:18:54;5.05;;;2.15;;
20067;SDS011;10194;50.824;7.134;2022-09-02T13:31:24;3.85;;;2.95;;
20067;SDS011;10194;50.824;7.134;2022-09-02T13:36:30;1.98;;;1.83;;
20067;SDS011;10194;50.824;7.134;2022-09-02T13:39:18;1.75;;;1.60;;
20067;SDS011;10194;50.824;7.134;2022-09-02T13:41:49;2.35;;;1.80;;
20067;SDS011;10194;50.824;7.134;2022-09-02T13:44:22;2.67;;;1.80;;
20067;SDS011;10194;50.824;7.134;2022-09-02T13:49:39;3.40;;;1.83;;
20067;SDS011;10194;50.824;7.134;2022-09-02T13:52:06;2.50;;;2.00;;
20067;SDS011;10194;50.824;7.134;2022-09-02T13:54:45;2.10;;;1.90;;
20067;SDS011;10194;50.824;7.134;2022-09-02T13:57:21;2.72;;;1.90;;
20067;SDS011;10194;50.824;7.134;2022-09-02T13:59:50;3.25;;;2.10;;
20067;SDS011;10194;50.824;7.134;2022-09-02T14:02:20;7.07;;;3.10;;
20067;SDS011;10194;50.824;7.134;2022-09-02T14:05:36;2.58;;;2.35;;
20067;SDS011;10194;50.824;7.134;2022-09-02T14:07:46;3.22;;;2.00;;
20067;SDS011;10194;50.824;7.134;2022-09-02T14:10:20;2.42;;;2.22;;
20067;SDS011;10194;50.824;7.134;2022-09-02T14:12:50;1.90;;;1.75;;
20067;SDS011;10194;50.824;7.134;2022-09-02T14:15:22;2.38;;;1.92;;
20067;SDS011;10194;50.824;7.134;2022-09-02T14:18:11;2.60;;;1.98;;
20067;SDS011;10194;50.824;7.134;2022-09-02T14:20:58;4.32;;;2.00;;
20067;SDS011;10194;50.824;7.134;2022-09-02T14:23:28;2.20;;;1.95;;
20067;SDS011;10194;50.824;7.134;2022-09-02T14:26:00;2.00;;;1.80;;
20067;SDS011;10194;50.824;7.134;2022-09-02T14:28:29;2.75;;;1.67;;
20067;SDS011;10194;50.824;7.134;2022-09-02T14:30:59;2.47;;;2.05;;
20067;SDS011;10194;50.824;7.134;2022-09-02T14:33:45;2.28;;;2.00;;
20067;SDS011;10194;50.824;7.134;2022-09-02T14:36:28;2.50;;;2.00;;
20067;SDS011;10194;50.824;7.134;2022-09-02T14:39:10;2.20;;;1.60;;
20067;SDS011;10194;50.824;7.134;2022-09-02T14:41:51;1.95;;;1.60;;
20067;SDS011;10194;50.824;7.134;2022-09-02T14:47:03;3.88;;;1.90;;
20067;SDS011;10194;50.824;7.134;2022-09-02T14:49:32;2.03;;;1.90;;
20067;SDS011;10194;50.824;7.134;2022-09-02T14:52:46;2.17;;;1.98;;
20067;SDS011;10194;50.824;7.134;2022-09-02T14:54:55;3.50;;;1.75;;
20067;SDS011;10194;50.824;7.134;2022-09-02T14:59:56;2.55;;;1.77;;
20067;SDS011;10194;50.824;7.134;2022-09-02T15:02:30;1.98;;;1.77;;
20067;SDS011;10194;50.824;7.134;2022-09-02T15:05:05;2.30;;;1.77;;
20067;SDS011;10194;50.824;7.134;2022-09-02T15:07:34;3.00;;;1.98;;
20067;SDS011;10194;50.824;7.134;2022-09-02T15:10:00;1.70;;;1.60;;
20067;SDS011;10194;50.824;7.134;2022-09-02T15:12:30;2.25;;;1.77;;
20067;SDS011;10194;50.824;7.134;2022-09-02T15:14:58;3.67;;;1.80;;
20067;SDS011;10194;50.824;7.134;2022-09-02T15:17:24;4.13;;;1.80;;
20067;SDS011;10194;50.824;7.134;2022-09-02T15:19:52;2.20;;;1.88;;
20067;SDS011;10194;50.824;7.134;2022-09-02T15:22:18;1.88;;;1.77;;
20067;SDS011;10194;50.824;7.134;2022-09-02T15:24:44;1.80;;;1.70;;
20067;SDS011;10194;50.824;7.134;2022-09-02T15:27:12;2.22;;;1.60;;
20067;SDS011;10194;50.824;7.134;2022-09-02T15:29:39;5.55;;;1.85;;
20067;SDS011;10194;50.824;7.134;2022-09-02T15:32:05;3.58;;;2.13;;
20067;SDS011;10194;50.824;7.134;2022-09-02T15:34:32;1.85;;;1.75;;
20067;SDS011;10194;50.824;7.134;2022-09-02T15:36:59;3.22;;;1.75;;
20067;SDS011;10194;50.824;7.134;2022-09-02T15:39:25;2.05;;;1.60;;
20067;SDS011;10194;50.824;7.134;2022-09-02T15:41:52;3.72;;;1.80;;
20067;SDS011;10194;50.824;7.134;2022-09-02T15:44:22;1.98;;;1.63;;
20067;SDS011;10194;50.824;7.134;2022-09-02T15:46:49;2.67;;;1.58;;
20067;SDS011;10194;50.824;7.134;2022-09-02T15:49:17;2.85;;;1.88;;
20067;SDS011;10194;50.824;7.134;2022-09-02T15:51:43;2.78;;;1.60;;
20067;SDS011;10194;50.824;7.134;2022-09-02T15:54:11;3.05;;;1.52;;
20067;SDS011;10194;50.824;7.134;2022-09-02T15:56:39;1.58;;;1.48;;
20067;SDS011;10194;50.824;7.134;2022-09-02T15:59:08;1.75;;;1.52;;
20067;SDS011;10194;50.824;7.134;2022-09-02T16:01:40;2.58;;;1.77;;
20067;SDS011;10194;50.824;7.134;2022-09-02T16:04:09;3.13;;;1.70;;
20067;SDS011;10194;50.824;7.134;2022-09-02T16:06:37;1.83;;;1.70;;
20067;SDS011;10194;50.824;7.134;2022-09-02T16:09:07;3.60;;;1.80;;
20067;SDS011;10194;50.824;7.134;2022-09-02T16:11:39;2.47;;;1.70;;
20067;SDS011;10194;50.824;7.134;2022-09-02T16:14:09;2.20;;;1.67;;
20067;SDS011;10194;50.824;7.134;2022-09-02T16:16:35;1.80;;;1.60;;
20067;SDS011;10194;50.824;7.134;2022-09-02T16:19:02;5.05;;;1.77;;
20067;SDS011;10194;50.824;7.134;2022-09-02T16:21:31;2.35;;;1.90;;
20067;SDS011;10194;50.824;7.134;2022-09-02T16:23:57;3.70;;;2.30;;
20067;SDS011;10194;50.824;7.134;2022-09-02T16:26:24;4.60;;;1.83;;
20067;SDS011;10194;50.824;7.134;2022-09-02T16:28:59;2.08;;;1.90;;
20067;SDS011;10194;50.824;7.134;2022-09-02T16:31:28;2.30;;;1.35;;
20067;SDS011;10194;50.824;7.134;2022-09-02T16:33:57;2.55;;;1.60;;
20067;SDS011;10194;50.824;7.134;2022-09-02T16:36:29;2.50;;;2.10;;
20067;SDS011;10194;50.824;7.134;2022-09-02T16:38:56;4.22;;;1.73;;
20067;SDS011;10194;50.824;7.134;2022-09-02T16:41:22;3.60;;;2.20;;
20067;SDS011;10194;50.824;7.134;2022-09-02T16:43:58;3.20;;;1.92;;
20067;SDS011;10194;50.824;7.134;2022-09-02T16:46:27;2.22;;;1.60;;
20067;SDS011;10194;50.824;7.134;2022-09-02T16:48:54;2.22;;;1.98;;
20067;SDS011;10194;50.824;7.134;2022-09-02T16:51:20;3.42;;;1.60;;
20067;SDS011;10194;50.824;7.134;2022-09-02T16:53:51;2.47;;;1.63;;
20067;SDS011;10194;50.824;7.134;2022-09-02T16:56:19;2.55;;;1.80;;
20067;SDS011;10194;50.824;7.134;2022-09-02T16:58:45;2.42;;;1.65;;
20067;SDS011;10194;50.824;7.134;2022-09-02T17:01:11;2.17;;;1.60;;
20067;SDS011;10194;50.824;7.134;2022-09-02T17:03:38;2.25;;;1.80;;
20067;SDS011;10194;50.824;7.134;2022-09-02T17:06:05;4.93;;;1.80;;
20067;SDS011;10194;50.824;7.134;2022-09-02T17:08:32;2.05;;;1.60;;
20067;SDS011;10194;50.824;7.134;2022-09-02T17:11:16;2.15;;;1.70;;
20067;SDS011;10194;50.824;7.134;2022-09-02T17:14:02;3.80;;;1.83;;
20067;SDS011;10194;50.824;7.134;2022-09-02T17:16:43;4.63;;;1.83;;
20067;SDS011;10194;50.824;7.134;2022-09-02T17:19:11;2.30;;;1.70;;
20067;SDS011;10194;50.824;7.134;2022-09-02T17:21:45;3.00;;;1.60;;
20067;SDS011;10194;50.824;7.134;2022-09-02T17:24:16;2.35;;;1.73;;
20067;SDS011;10194;50.824;7.134;2022-09-02T17:26:45;1.95;;;1.70;;
20067;SDS011;10194;50.824;7.134;2022-09-02T17:29:15;1.65;;;1.52;;
20067;SDS011;10194;50.824;7.134;2022-09-02T17:31:46;3.35;;;1.90;;
20067;SDS011;10194;50.824;7.134;2022-09-02T17:34:13;2.33;;;2.00;;